This is the latest recevied weather packets stored in our database for station/object BM2MWA-13. If no packets are shown the sender has not sent any weather packets the latest 10 day(s).
| Time | Temp. | Humidity | Pressure | Rain* | Wind** | Luminosity | Snow |
|---|---|---|---|---|---|---|---|
| 1787374623 | 31.67° C | 71% | 997.9 hPa | 0 mm | - | - | - |
| 1787374023 | 31.11° C | 74% | 997.9 hPa | 0 mm | - | - | - |
| 1787373423 | 31.11° C | 74% | 998 hPa | 0 mm | - | - | - |
| 1787372824 | 31.67° C | 69% | 998.2 hPa | 0 mm | - | - | - |
| 1787372223 | 32.22° C | 67% | 998.4 hPa | 0 mm | - | - | - |
| 1787371623 | 32.78° C | 62% | 998.5 hPa | 0 mm | - | - | - |
| 1787371023 | 32.22° C | 67% | 998.6 hPa | 0 mm | - | - | - |
| 1787370424 | 32.78° C | 62% | 998.8 hPa | 0 mm | - | - | - |
| 1787369824 | 32.22° C | 66% | 999 hPa | 0 mm | - | - | - |
| 1787369223 | 31.67° C | 68% | 999.1 hPa | 0 mm | - | - | - |
| 1787368624 | 31.67° C | 69% | 999.2 hPa | 0 mm | - | - | - |
| 1787368023 | 32.22° C | 69% | 999.3 hPa | 0 mm | - | - | - |
| 1787367423 | 32.22° C | 69% | 999.5 hPa | 0 mm | - | - | - |
| 1787366823 | 31.67° C | 70% | 999.7 hPa | 0 mm | - | - | - |
| 1787366224 | 31.67° C | 69% | 999.8 hPa | 0 mm | - | - | - |
| 1787365623 | 31.11° C | 71% | 999.8 hPa | 0 mm | - | - | - |
| 1787365024 | 31.11° C | 72% | 999.8 hPa | 0 mm | - | - | - |
| 1787364425 | 30.56° C | 74% | 1000 hPa | 0 mm | - | - | - |
| 1787363823 | 31.11° C | 75% | 1000 hPa | 0 mm | - | - | - |
| 1787363224 | 30.56° C | 76% | 1000 hPa | 0 mm | - | - | - |
| 1787362624 | 30.56° C | 74% | 1000 hPa | 0 mm | - | - | - |
| 1787362024 | 30° C | 77% | 1000 hPa | 0 mm | - | - | - |
| 1787361423 | 30° C | 77% | 999.9 hPa | 0 mm | - | - | - |
| 1787360823 | 29.44° C | 79% | 1000 hPa | 0 mm | - | - | - |
| 1787360223 | 29.44° C | 85% | 999.9 hPa | 0 mm | - | - | - |
* Rain latest hour (hover to see other rain measurements)
** Current wind speed in m/s (hover to see current wind gust speed)